Time;durP1;ratioP1;P1;durP2;ratioP2;P2;SDS_P1;SDS_P2;PMS_P1;PMS_P2;Temp;Humidity;BMP_temperature;BMP_pressure;BME280_temperature;BME280_humidity;BME280_pressure;Samples;Min_cycle;Max_cycle;Signal;HPM_P1;HPM_P2
2022/03/25 00:00:45;;;;;;;22.43;14.37;;;;;;;;;;5051297;28;20234;-80
2022/03/25 00:03:12;;;;;;;24.33;15.50;;;;;;;;;;5052277;28;20230;-81
2022/03/25 00:05:39;;;;;;;22.83;13.90;;;;;;;;;;5051083;28;20260;-81
2022/03/25 00:08:08;;;;;;;22.10;15.03;;;;;;;;;;5051612;28;20206;-81
2022/03/25 00:10:35;;;;;;;23.27;15.20;;;;;;;;;;5051712;28;20234;-81
2022/03/25 00:13:02;;;;;;;22.90;15.23;;;;;;;;;;5050962;28;20249;-81
2022/03/25 00:15:29;;;;;;;27.90;15.63;;;;;;;;;;5051017;28;20264;-81
2022/03/25 00:17:57;;;;;;;26.73;15.50;;;;;;;;;;5055253;28;20236;-81
2022/03/25 00:20:24;;;;;;;31.83;15.50;;;;;;;;;;5055095;28;20260;-81
2022/03/25 00:22:51;;;;;;;24.73;15.80;;;;;;;;;;5054979;28;20217;-81
2022/03/25 00:25:18;;;;;;;27.47;15.63;;;;;;;;;;5054519;28;20721;-81
2022/03/25 00:27:45;;;;;;;28.80;16.47;;;;;;;;;;5054793;28;20295;-81
2022/03/25 00:30:13;;;;;;;23.87;14.27;;;;;;;;;;5054883;28;20209;-81
2022/03/25 00:32:40;;;;;;;25.60;15.17;;;;;;;;;;5055023;28;20207;-80
2022/03/25 00:35:10;;;;;;;24.57;15.40;;;;;;;;;;5054453;28;20230;-81
2022/03/25 00:37:37;;;;;;;23.03;15.13;;;;;;;;;;5054814;28;20209;-81
2022/03/25 00:40:05;;;;;;;23.80;14.47;;;;;;;;;;5055125;28;20214;-81
2022/03/25 00:42:32;;;;;;;25.60;15.77;;;;;;;;;;5054756;28;20229;-81
2022/03/25 00:45:01;;;;;;;26.10;15.63;;;;;;;;;;5054996;28;20215;-82
2022/03/25 00:47:28;;;;;;;20.87;13.33;;;;;;;;;;5054411;28;20228;-82
2022/03/25 00:49:55;;;;;;;24.43;15.00;;;;;;;;;;5055217;28;20209;-82
2022/03/25 00:52:24;;;;;;;22.23;15.20;;;;;;;;;;5053715;28;20266;-81
2022/03/25 00:54:51;;;;;;;24.73;15.33;;;;;;;;;;5053715;28;20291;-82
2022/03/25 00:57:19;;;;;;;21.70;15.03;;;;;;;;;;5054115;28;20242;-81
2022/03/25 00:59:46;;;;;;;27.13;15.90;;;;;;;;;;5055445;28;20220;-80
2022/03/25 01:02:13;;;;;;;24.70;15.63;;;;;;;;;;5054821;28;20287;-81
2022/03/25 01:04:40;;;;;;;22.43;15.77;;;;;;;;;;5053046;28;20228;-81
2022/03/25 01:07:07;;;;;;;21.30;14.90;;;;;;;;;;5056068;28;20238;-80
2022/03/25 01:09:36;;;;;;;24.63;15.90;;;;;;;;;;5055845;28;20236;-80
2022/03/25 01:12:03;;;;;;;25.30;14.63;;;;;;;;;;5055580;28;20238;-80
2022/03/25 01:14:30;;;;;;;27.03;15.53;;;;;;;;;;5055904;28;20228;-80
2022/03/25 01:16:57;;;;;;;25.43;14.97;;;;;;;;;;5055305;28;20237;-81
2022/03/25 01:19:27;;;;;;;27.27;16.07;;;;;;;;;;5055492;28;20208;-81
2022/03/25 01:21:54;;;;;;;26.83;16.50;;;;;;;;;;5054158;28;20260;-82
2022/03/25 01:24:21;;;;;;;25.63;16.40;;;;;;;;;;5055071;28;20220;-80
2022/03/25 01:26:56;;;;;;;23.00;14.63;;;;;;;;;;5054243;28;20769;-82
2022/03/25 01:29:24;;;;;;;20.00;13.97;;;;;;;;;;5054278;28;20582;-82
2022/03/25 01:31:51;;;;;;;22.03;14.43;;;;;;;;;;5054123;28;20243;-81
2022/03/25 01:34:18;;;;;;;26.10;15.13;;;;;;;;;;5054838;28;20237;-81
2022/03/25 01:36:45;;;;;;;23.63;15.00;;;;;;;;;;5054153;28;20245;-81
2022/03/25 01:39:12;;;;;;;23.23;15.53;;;;;;;;;;5054606;28;20211;-81
2022/03/25 01:41:39;;;;;;;25.50;14.57;;;;;;;;;;5053486;28;20231;-81
2022/03/25 01:44:11;;;;;;;24.10;14.80;;;;;;;;;;5054630;28;20219;-82
2022/03/25 01:46:38;;;;;;;33.63;17.30;;;;;;;;;;5053661;28;20223;-80
2022/03/25 01:49:05;;;;;;;29.23;16.40;;;;;;;;;;5054306;28;20199;-80
2022/03/25 01:51:34;;;;;;;29.33;15.43;;;;;;;;;;5053689;28;20234;-81
2022/03/25 01:54:01;;;;;;;31.20;17.30;;;;;;;;;;5054141;28;20238;-81
2022/03/25 01:56:28;;;;;;;23.90;15.53;;;;;;;;;;5052711;28;20243;-81
2022/03/25 01:58:55;;;;;;;24.53;15.73;;;;;;;;;;5054242;28;20201;-81
2022/03/25 02:01:26;;;;;;;24.97;15.57;;;;;;;;;;5054006;28;20253;-82
2022/03/25 02:03:53;;;;;;;26.63;15.87;;;;;;;;;;5053659;28;20214;-81
2022/03/25 02:06:20;;;;;;;25.10;15.63;;;;;;;;;;5053002;28;20299;-81
2022/03/25 02:08:47;;;;;;;30.17;16.80;;;;;;;;;;5051142;28;20271;-81
2022/03/25 02:11:16;;;;;;;25.97;15.30;;;;;;;;;;5053117;28;20241;-81
2022/03/25 02:13:43;;;;;;;25.70;15.53;;;;;;;;;;5053640;28;20227;-81
2022/03/25 02:16:11;;;;;;;26.17;15.37;;;;;;;;;;5051930;28;20306;-81
2022/03/25 02:18:39;;;;;;;28.53;15.27;;;;;;;;;;5052664;28;20230;-81
2022/03/25 02:21:06;;;;;;;28.00;16.23;;;;;;;;;;5057092;28;20237;-82
2022/03/25 02:23:34;;;;;;;24.83;15.27;;;;;;;;;;5057155;28;20218;-82
2022/03/25 02:26:01;;;;;;;26.27;15.80;;;;;;;;;;5056945;28;20245;-81
2022/03/25 02:28:28;;;;;;;28.43;16.13;;;;;;;;;;5057009;28;20203;-81
2022/03/25 02:30:55;;;;;;;25.63;16.23;;;;;;;;;;5053484;28;20261;-80
2022/03/25 02:33:22;;;;;;;27.60;15.27;;;;;;;;;;5053927;28;20233;-80
2022/03/25 02:35:51;;;;;;;23.30;15.13;;;;;;;;;;5053206;28;20265;-80
2022/03/25 02:38:19;;;;;;;27.37;15.03;;;;;;;;;;5052638;28;20210;-81
2022/03/25 02:40:47;;;;;;;26.70;15.53;;;;;;;;;;5052462;28;20265;-80
2022/03/25 02:43:15;;;;;;;24.40;14.90;;;;;;;;;;5053600;28;20203;-80
2022/03/25 02:45:42;;;;;;;26.93;14.73;;;;;;;;;;5052455;28;20249;-81
2022/03/25 02:48:11;;;;;;;23.13;15.40;;;;;;;;;;5053455;28;20210;-80
2022/03/25 02:50:38;;;;;;;23.97;13.87;;;;;;;;;;5052615;28;20230;-81
2022/03/25 02:53:05;;;;;;;25.53;14.87;;;;;;;;;;5053189;28;20203;-80
2022/03/25 02:55:32;;;;;;;21.27;14.13;;;;;;;;;;5053165;28;20234;-80
2022/03/25 02:58:00;;;;;;;26.57;14.63;;;;;;;;;;5049084;28;20261;-80
2022/03/25 03:00:27;;;;;;;25.60;14.07;;;;;;;;;;5052188;28;20241;-81
2022/03/25 03:02:55;;;;;;;27.17;14.83;;;;;;;;;;5052855;28;20218;-81
2022/03/25 03:05:22;;;;;;;23.43;15.80;;;;;;;;;;5051942;28;20246;-81
2022/03/25 03:07:49;;;;;;;23.43;13.77;;;;;;;;;;5050742;28;20206;-81
2022/03/25 03:10:16;;;;;;;25.43;14.77;;;;;;;;;;5052549;28;20213;-81
2022/03/25 03:12:43;;;;;;;28.17;15.30;;;;;;;;;;5052826;28;20229;-81
2022/03/25 03:15:13;;;;;;;27.97;16.20;;;;;;;;;;5051601;28;20230;-80
2022/03/25 03:17:40;;;;;;;29.53;15.47;;;;;;;;;;5052488;28;20207;-81
2022/03/25 03:20:08;;;;;;;23.03;14.77;;;;;;;;;;5051822;28;20213;-79
2022/03/25 03:22:35;;;;;;;21.23;14.77;;;;;;;;;;5052550;28;20208;-81
2022/03/25 03:25:03;;;;;;;24.27;14.57;;;;;;;;;;5052030;28;20248;-81
2022/03/25 03:27:30;;;;;;;29.00;15.73;;;;;;;;;;5052428;28;20199;-82
2022/03/25 03:29:58;;;;;;;24.70;15.67;;;;;;;;;;5052615;28;20207;-81
2022/03/25 03:32:27;;;;;;;29.80;17.07;;;;;;;;;;5052043;28;20230;-81
2022/03/25 03:34:54;;;;;;;27.40;15.73;;;;;;;;;;5052331;28;20230;-80
2022/03/25 03:37:21;;;;;;;27.90;16.53;;;;;;;;;;5051368;28;20242;-80
2022/03/25 03:39:48;;;;;;;27.07;16.53;;;;;;;;;;5052558;28;20241;-80
2022/03/25 03:42:16;;;;;;;25.47;15.30;;;;;;;;;;5051816;28;20245;-80
2022/03/25 03:44:43;;;;;;;26.73;15.27;;;;;;;;;;5051803;28;20223;-81
2022/03/25 03:47:10;;;;;;;22.93;14.90;;;;;;;;;;5051612;28;20238;-81
2022/03/25 03:49:39;;;;;;;26.53;15.50;;;;;;;;;;5052475;28;20274;-81
2022/03/25 03:52:06;;;;;;;27.13;15.77;;;;;;;;;;5047122;28;20245;-80
2022/03/25 03:54:33;;;;;;;23.53;15.20;;;;;;;;;;5040823;28;20238;-81
2022/03/25 03:57:00;;;;;;;33.60;15.40;;;;;;;;;;5041241;28;20234;-80
2022/03/25 03:59:27;;;;;;;27.77;15.03;;;;;;;;;;5047982;28;20218;-80
2022/03/25 04:01:54;;;;;;;30.27;16.00;;;;;;;;;;5049703;28;20238;-80
2022/03/25 04:04:21;;;;;;;27.70;16.53;;;;;;;;;;5050912;28;20249;-81
2022/03/25 04:06:50;;;;;;;24.93;15.67;;;;;;;;;;5050237;28;20242;-80
2022/03/25 04:09:17;;;;;;;25.90;16.57;;;;;;;;;;5050847;28;20205;-79
2022/03/25 04:11:44;;;;;;;28.77;16.50;;;;;;;;;;5050129;28;20238;-80
2022/03/25 04:14:11;;;;;;;27.13;16.73;;;;;;;;;;5050701;28;20234;-82
2022/03/25 04:16:38;;;;;;;28.33;16.07;;;;;;;;;;5050650;28;20238;-82
2022/03/25 04:19:05;;;;;;;25.77;14.23;;;;;;;;;;5051339;28;20202;-81
2022/03/25 04:21:32;;;;;;;22.20;15.20;;;;;;;;;;5050602;28;20249;-81
2022/03/25 04:24:01;;;;;;;23.23;14.87;;;;;;;;;;5050933;28;20226;-80
2022/03/25 04:26:28;;;;;;;29.70;15.70;;;;;;;;;;5047377;28;20230;-81
2022/03/25 04:28:55;;;;;;;26.00;15.00;;;;;;;;;;5039821;28;20211;-80
2022/03/25 04:31:22;;;;;;;28.80;15.13;;;;;;;;;;5040756;28;20287;-81
2022/03/25 04:33:49;;;;;;;30.23;15.73;;;;;;;;;;5039490;28;20216;-81
2022/03/25 04:36:16;;;;;;;29.93;14.87;;;;;;;;;;5039453;28;20234;-81
2022/03/25 04:38:43;;;;;;;26.47;14.63;;;;;;;;;;5040626;28;20214;-80
2022/03/25 04:41:12;;;;;;;23.33;14.27;;;;;;;;;;5043359;28;20238;-82
2022/03/25 04:43:39;;;;;;;24.63;14.80;;;;;;;;;;5038328;28;20221;-81
2022/03/25 04:46:06;;;;;;;25.27;14.70;;;;;;;;;;5038065;28;20280;-80
2022/03/25 04:48:33;;;;;;;23.20;14.77;;;;;;;;;;5039626;28;20220;-79
2022/03/25 04:51:00;;;;;;;31.70;15.77;;;;;;;;;;5038533;28;20779;-83
2022/03/25 04:53:28;;;;;;;27.60;15.13;;;;;;;;;;5039026;28;20222;-81
2022/03/25 04:55:55;;;;;;;26.33;15.93;;;;;;;;;;5038936;28;20289;-81
2022/03/25 04:58:23;;;;;;;27.03;15.77;;;;;;;;;;5042626;28;20583;-81
2022/03/25 05:00:50;;;;;;;28.33;15.57;;;;;;;;;;5040192;28;20260;-81
2022/03/25 05:03:19;;;;;;;31.50;15.13;;;;;;;;;;5044854;28;20216;-80
2022/03/25 05:05:47;;;;;;;26.17;15.70;;;;;;;;;;5042233;28;20241;-80
2022/03/25 05:08:14;;;;;;;37.60;14.87;;;;;;;;;;5043799;28;20249;-82
2022/03/25 05:10:41;;;;;;;27.23;16.17;;;;;;;;;;5041932;28;20401;-80
2022/03/25 05:13:08;;;;;;;29.03;15.63;;;;;;;;;;5047881;28;20199;-82
2022/03/25 05:15:37;;;;;;;30.43;15.60;;;;;;;;;;5052306;28;20225;-82
2022/03/25 05:18:04;;;;;;;27.47;15.23;;;;;;;;;;5057789;28;20204;-81
2022/03/25 05:20:31;;;;;;;31.87;15.20;;;;;;;;;;5055050;28;20244;-81
2022/03/25 05:22:58;;;;;;;25.73;15.83;;;;;;;;;;5055448;28;20291;-81
2022/03/25 05:25:25;;;;;;;25.87;15.80;;;;;;;;;;5054694;28;20242;-81
2022/03/25 05:27:53;;;;;;;29.20;16.00;;;;;;;;;;5055112;28;20206;-81
2022/03/25 05:30:21;;;;;;;26.83;15.73;;;;;;;;;;5053170;28;20237;-81
2022/03/25 05:32:50;;;;;;;26.67;15.33;;;;;;;;;;5055188;28;20202;-81
2022/03/25 05:35:17;;;;;;;25.43;15.13;;;;;;;;;;5044910;28;20235;-81
2022/03/25 05:37:44;;;;;;;27.13;16.27;;;;;;;;;;5041351;28;20272;-83
2022/03/25 05:40:12;;;;;;;30.17;16.00;;;;;;;;;;5033977;28;20256;-80
2022/03/25 05:42:39;;;;;;;26.00;16.20;;;;;;;;;;5044097;28;20710;-80
2022/03/25 05:45:08;;;;;;;23.10;15.23;;;;;;;;;;5041982;28;20250;-82
2022/03/25 05:47:35;;;;;;;28.43;16.43;;;;;;;;;;5040360;28;20583;-82
2022/03/25 05:50:04;;;;;;;27.63;17.07;;;;;;;;;;5038744;28;20189;-83
2022/03/25 05:52:31;;;;;;;26.17;16.07;;;;;;;;;;5039303;28;20222;-81
2022/03/25 05:54:58;;;;;;;26.77;16.37;;;;;;;;;;5038880;28;20233;-82
2022/03/25 05:57:26;;;;;;;30.10;16.73;;;;;;;;;;5042440;28;20276;-82
2022/03/25 05:59:55;;;;;;;40.73;16.17;;;;;;;;;;5043097;28;20215;-81
2022/03/25 06:02:22;;;;;;;31.50;16.63;;;;;;;;;;5042209;28;20238;-81
2022/03/25 06:04:49;;;;;;;27.60;16.43;;;;;;;;;;5043675;28;20226;-81
2022/03/25 06:07:17;;;;;;;27.43;15.43;;;;;;;;;;5038329;28;20237;-81
2022/03/25 06:09:44;;;;;;;26.70;16.17;;;;;;;;;;5041440;28;20602;-83
2022/03/25 06:12:12;;;;;;;30.03;16.93;;;;;;;;;;5035926;28;20289;-83
2022/03/25 06:14:39;;;;;;;32.00;17.73;;;;;;;;;;5038043;28;20261;-83
2022/03/25 06:17:06;;;;;;;32.90;18.40;;;;;;;;;;5037896;28;20237;-81
2022/03/25 06:19:33;;;;;;;36.77;18.30;;;;;;;;;;5042480;28;20187;-81
2022/03/25 06:22:00;;;;;;;31.30;16.77;;;;;;;;;;5043027;28;20241;-81
2022/03/25 06:24:29;;;;;;;35.60;18.97;;;;;;;;;;5042044;28;20229;-80
2022/03/25 06:26:56;;;;;;;38.93;19.43;;;;;;;;;;5039435;28;20706;-81
2022/03/25 06:29:23;;;;;;;35.03;18.80;;;;;;;;;;5043039;28;20203;-81
2022/03/25 06:31:51;;;;;;;34.27;18.13;;;;;;;;;;5042442;28;20242;-81
2022/03/25 06:34:20;;;;;;;40.20;19.00;;;;;;;;;;5043743;28;20229;-80
2022/03/25 06:36:49;;;;;;;34.80;18.03;;;;;;;;;;5041064;28;20234;-81
2022/03/25 06:39:16;;;;;;;36.10;19.77;;;;;;;;;;5039879;28;20197;-81
2022/03/25 06:41:45;;;;;;;38.60;21.90;;;;;;;;;;5039771;28;20231;-81
2022/03/25 06:44:12;;;;;;;36.00;20.60;;;;;;;;;;5039607;28;20219;-81
2022/03/25 06:46:40;;;;;;;38.40;20.27;;;;;;;;;;5039613;28;20226;-81
2022/03/25 06:49:07;;;;;;;38.13;20.40;;;;;;;;;;5041194;28;20195;-81
2022/03/25 06:51:34;;;;;;;42.60;21.03;;;;;;;;;;5039415;28;20234;-81
2022/03/25 06:54:02;;;;;;;35.37;20.57;;;;;;;;;;5040856;28;20233;-81
2022/03/25 06:56:29;;;;;;;42.47;22.13;;;;;;;;;;5042501;28;20230;-81
2022/03/25 06:59:01;;;;;;;43.10;21.57;;;;;;;;;;5041168;28;20194;-81
2022/03/25 07:01:28;;;;;;;44.10;21.70;;;;;;;;;;5041251;28;20294;-80
2022/03/25 07:03:55;;;;;;;40.97;21.90;;;;;;;;;;5039773;28;20234;-81
2022/03/25 07:06:24;;;;;;;43.23;22.70;;;;;;;;;;5033046;28;20253;-81
2022/03/25 07:08:54;;;;;;;42.73;22.53;;;;;;;;;;5033037;28;20218;-81
2022/03/25 07:11:21;;;;;;;43.37;23.50;;;;;;;;;;5033723;28;20292;-82
2022/03/25 07:13:48;;;;;;;65.13;32.43;;;;;;;;;;5034289;28;20265;-82
2022/03/25 07:16:17;;;;;;;50.70;26.03;;;;;;;;;;5033494;28;20331;-82
2022/03/25 07:18:44;;;;;;;50.60;27.70;;;;;;;;;;5034292;28;20217;-82
2022/03/25 07:21:12;;;;;;;36.90;22.20;;;;;;;;;;5034990;28;20231;-82
2022/03/25 07:23:39;;;;;;;48.73;26.13;;;;;;;;;;5034488;28;20706;-82
2022/03/25 07:26:07;;;;;;;43.53;23.63;;;;;;;;;;5032462;28;20285;-82
2022/03/25 07:28:35;;;;;;;38.20;22.93;;;;;;;;;;5033449;28;20210;-82
2022/03/25 07:31:02;;;;;;;42.40;23.97;;;;;;;;;;5032889;28;20241;-83
2022/03/25 07:33:30;;;;;;;37.73;22.93;;;;;;;;;;5034387;28;20210;-83
2022/03/25 07:35:57;;;;;;;38.47;21.20;;;;;;;;;;5033618;28;20234;-83
2022/03/25 07:38:24;;;;;;;40.93;22.53;;;;;;;;;;5033512;28;20692;-82
2022/03/25 07:40:51;;;;;;;43.93;21.27;;;;;;;;;;5032945;28;20234;-83
2022/03/25 07:43:18;;;;;;;41.03;23.30;;;;;;;;;;5032955;28;20203;-83
2022/03/25 07:45:45;;;;;;;50.40;22.43;;;;;;;;;;5032787;28;20244;-83
2022/03/25 07:48:13;;;;;;;35.00;21.13;;;;;;;;;;5034982;28;20844;-83
2022/03/25 07:50:41;;;;;;;35.57;21.00;;;;;;;;;;5033144;28;20236;-83
2022/03/25 07:53:09;;;;;;;33.00;21.27;;;;;;;;;;5034158;28;20200;-84
2022/03/25 07:55:36;;;;;;;35.87;20.60;;;;;;;;;;5032978;28;20235;-83
2022/03/25 07:58:03;;;;;;;33.37;19.97;;;;;;;;;;5032090;28;20262;-83
2022/03/25 08:00:30;;;;;;;34.30;20.97;;;;;;;;;;5032283;28;20298;-83
2022/03/25 08:02:57;;;;;;;34.43;19.60;;;;;;;;;;5032646;28;20211;-83
2022/03/25 08:05:25;;;;;;;34.40;22.00;;;;;;;;;;5031896;28;20242;-83
2022/03/25 08:07:54;;;;;;;37.50;20.60;;;;;;;;;;5032690;28;20297;-83
2022/03/25 08:10:22;;;;;;;33.00;20.63;;;;;;;;;;5032249;28;20197;-82
2022/03/25 08:12:49;;;;;;;35.33;19.93;;;;;;;;;;5032746;28;20206;-83
2022/03/25 08:15:16;;;;;;;34.60;20.77;;;;;;;;;;5031849;28;20725;-83
2022/03/25 08:17:48;;;;;;;32.47;21.50;;;;;;;;;;5032704;28;20198;-84
2022/03/25 08:20:20;;;;;;;30.30;19.70;;;;;;;;;;5036393;28;20207;-84
2022/03/25 08:22:49;;;;;;;32.80;19.13;;;;;;;;;;5034098;28;20223;-83
2022/03/25 08:28:03;;;;;;;30.67;19.37;;;;;;;;;;5032401;28;20554;-83
2022/03/25 08:30:30;;;;;;;32.93;19.80;;;;;;;;;;5032109;28;20230;-84
2022/03/25 08:32:58;;;;;;;30.70;19.50;;;;;;;;;;5032462;28;20187;-83
2022/03/25 08:35:25;;;;;;;30.13;18.97;;;;;;;;;;5031938;28;20238;-83
2022/03/25 08:37:53;;;;;;;36.27;19.97;;;;;;;;;;5034728;28;20202;-84
2022/03/25 08:40:21;;;;;;;33.47;19.57;;;;;;;;;;5035624;28;20729;-83
2022/03/25 08:42:48;;;;;;;30.20;18.47;;;;;;;;;;5035965;28;20207;-84
2022/03/25 08:45:16;;;;;;;31.00;17.93;;;;;;;;;;5035742;28;20260;-83
2022/03/25 08:47:44;;;;;;;30.70;18.77;;;;;;;;;;5035988;28;20209;-84
2022/03/25 08:50:12;;;;;;;31.87;18.10;;;;;;;;;;5036925;28;20202;-83
2022/03/25 08:52:39;;;;;;;31.20;19.90;;;;;;;;;;5035759;28;20257;-83
2022/03/25 08:55:07;;;;;;;33.67;18.97;;;;;;;;;;5034835;28;20242;-84
2022/03/25 08:57:35;;;;;;;30.27;19.40;;;;;;;;;;5035650;28;20199;-84
2022/03/25 09:00:02;;;;;;;31.80;19.37;;;;;;;;;;5036216;28;20207;-84
2022/03/25 09:02:29;;;;;;;28.97;18.47;;;;;;;;;;5035061;28;20223;-84
2022/03/25 09:04:56;;;;;;;30.23;18.60;;;;;;;;;;5035625;28;20223;-84
2022/03/25 09:07:24;;;;;;;30.70;19.77;;;;;;;;;;5035000;28;20234;-83
2022/03/25 09:09:51;;;;;;;28.47;18.13;;;;;;;;;;5035361;28;20202;-84
2022/03/25 09:12:18;;;;;;;29.23;18.40;;;;;;;;;;5050188;28;20345;-84
2022/03/25 09:14:46;;;;;;;31.60;18.50;;;;;;;;;;5049275;28;20782;-84
2022/03/25 09:17:13;;;;;;;27.83;18.13;;;;;;;;;;5046462;28;20235;-84
2022/03/25 09:19:40;;;;;;;30.17;18.67;;;;;;;;;;5035529;28;20214;-84
2022/03/25 09:22:07;;;;;;;34.33;19.67;;;;;;;;;;5035791;28;20230;-84
2022/03/25 09:24:34;;;;;;;32.50;18.57;;;;;;;;;;5035236;28;20241;-84
2022/03/25 09:27:01;;;;;;;35.53;19.83;;;;;;;;;;5034472;28;20231;-84
2022/03/25 09:29:28;;;;;;;31.07;19.77;;;;;;;;;;5035520;28;20195;-84
2022/03/25 09:31:57;;;;;;;27.50;18.23;;;;;;;;;;5034374;28;20309;-84
2022/03/25 09:37:09;;;;;;;29.77;20.57;;;;;;;;;;5034121;28;20602;-84
2022/03/25 09:39:36;;;;;;;27.97;18.50;;;;;;;;;;5034989;28;20253;-84
2022/03/25 09:42:05;;;;;;;30.87;20.47;;;;;;;;;;5033876;28;20245;-84
2022/03/25 09:44:33;;;;;;;27.90;19.57;;;;;;;;;;5035460;28;20230;-84
2022/03/25 09:47:02;;;;;;;31.13;19.87;;;;;;;;;;5033743;28;20230;-84
2022/03/25 09:49:29;;;;;;;29.90;20.00;;;;;;;;;;5033116;28;20218;-84
2022/03/25 09:51:57;;;;;;;28.50;19.37;;;;;;;;;;5033961;28;20237;-84
2022/03/25 09:54:24;;;;;;;32.57;21.63;;;;;;;;;;5034697;28;20276;-84
2022/03/25 09:56:51;;;;;;;30.60;20.47;;;;;;;;;;5034062;28;20694;-82
2022/03/25 09:59:19;;;;;;;28.33;19.20;;;;;;;;;;5035078;28;20211;-82
2022/03/25 10:01:46;;;;;;;30.23;19.97;;;;;;;;;;5033833;28;20234;-81
2022/03/25 10:04:28;;;;;;;33.17;19.80;;;;;;;;;;5034615;28;20238;-82
2022/03/25 10:06:57;;;;;;;28.57;18.97;;;;;;;;;;5033829;28;20284;-84
2022/03/25 10:09:24;;;;;;;27.80;19.35;;;;;;;;;;5034908;28;20207;-85
2022/03/25 10:11:51;;;;;;;31.15;19.85;;;;;;;;;;5033795;28;20261;-84
2022/03/25 10:14:19;;;;;;;29.42;20.08;;;;;;;;;;5036985;28;20230;-82
2022/03/25 10:16:47;;;;;;;31.75;20.90;;;;;;;;;;5034190;28;20243;-82
2022/03/25 10:19:16;;;;;;;30.30;20.00;;;;;;;;;;5034440;28;20210;-83
2022/03/25 10:21:53;;;;;;;28.83;20.08;;;;;;;;;;5033572;28;20318;-83
2022/03/25 10:24:36;;;;;;;30.65;20.88;;;;;;;;;;5070327;22;20275;-83
2022/03/25 10:27:06;;;;;;;28.13;21.05;;;;;;;;;;5056206;28;20234;-85
2022/03/25 10:29:34;;;;;;;28.10;20.70;;;;;;;;;;5055709;28;20277;-84
2022/03/25 10:32:05;;;;;;;34.50;22.95;;;;;;;;;;5053951;28;20299;-84
2022/03/25 10:34:32;;;;;;;28.92;20.70;;;;;;;;;;5040469;28;20230;-84
2022/03/25 10:37:02;;;;;;;31.42;21.17;;;;;;;;;;5034406;28;20258;-84
2022/03/25 10:39:29;;;;;;;30.50;21.25;;;;;;;;;;5033720;28;20198;-84
2022/03/25 10:42:00;;;;;;;31.17;21.67;;;;;;;;;;5033836;28;20235;-83
2022/03/25 10:44:34;;;;;;;28.23;20.75;;;;;;;;;;5033777;28;20223;-84
2022/03/25 10:47:01;;;;;;;32.90;20.38;;;;;;;;;;5032892;28;20681;-84
2022/03/25 10:49:38;;;;;;;28.85;20.70;;;;;;;;;;5033800;28;20210;-83
2022/03/25 10:52:06;;;;;;;27.63;20.02;;;;;;;;;;5032696;28;20250;-83
2022/03/25 10:54:33;;;;;;;28.75;21.15;;;;;;;;;;5033800;28;20230;-84
2022/03/25 10:57:01;;;;;;;29.50;20.88;;;;;;;;;;5030861;28;20238;-85
2022/03/25 10:59:30;;;;;;;35.75;20.95;;;;;;;;;;5042169;28;20293;-85
2022/03/25 11:01:58;;;;;;;27.48;20.35;;;;;;;;;;5047415;28;20234;-85
2022/03/25 11:04:25;;;;;;;28.27;20.75;;;;;;;;;;5034767;28;20277;-84
2022/03/25 11:06:52;;;;;;;28.05;19.92;;;;;;;;;;5032026;28;20574;-85
2022/03/25 11:09:22;;;;;;;28.27;18.85;;;;;;;;;;5034929;28;20230;-85
2022/03/25 11:11:51;;;;;;;27.73;19.80;;;;;;;;;;5031986;28;20230;-86
2022/03/25 11:14:20;;;;;;;27.38;20.05;;;;;;;;;;5032481;28;20226;-86
2022/03/25 11:16:49;;;;;;;29.92;20.75;;;;;;;;;;5030793;28;20262;-85
2022/03/25 11:19:16;;;;;;;27.00;19.58;;;;;;;;;;5032339;28;20227;-85
2022/03/25 11:21:44;;;;;;;28.27;19.58;;;;;;;;;;5031592;28;20234;-86
2022/03/25 11:24:15;;;;;;;27.27;20.95;;;;;;;;;;5032000;28;20230;-84
2022/03/25 11:26:43;;;;;;;29.25;21.13;;;;;;;;;;5031190;28;20230;-86
2022/03/25 11:29:12;;;;;;;28.73;20.08;;;;;;;;;;5032017;28;20205;-86
2022/03/25 11:31:58;;;;;;;28.15;20.70;;;;;;;;;;5030444;28;20238;-86
2022/03/25 11:34:27;;;;;;;29.90;20.85;;;;;;;;;;5032153;28;20234;-86
2022/03/25 11:37:15;;;;;;;27.90;21.13;;;;;;;;;;5031208;28;20284;-84
2022/03/25 11:39:42;;;;;;;29.30;20.00;;;;;;;;;;5032180;28;20210;-85
2022/03/25 11:42:29;;;;;;;28.98;20.83;;;;;;;;;;5031423;28;20238;-86
2022/03/25 11:45:12;;;;;;;30.05;20.50;;;;;;;;;;5031621;28;20223;-85
2022/03/25 11:47:41;;;;;;;31.95;22.20;;;;;;;;;;5030727;28;20301;-86
2022/03/25 11:50:25;;;;;;;29.42;21.23;;;;;;;;;;5031042;28;20202;-85
2022/03/25 11:52:52;;;;;;;28.20;20.00;;;;;;;;;;5011916;28;20191;-85
2022/03/25 11:55:19;;;;;;;29.42;22.27;;;;;;;;;;5011924;28;20710;-85
2022/03/25 11:57:47;;;;;;;28.63;22.25;;;;;;;;;;5026970;28;20227;-85
2022/03/25 12:00:23;;;;;;;29.85;22.27;;;;;;;;;;5031281;28;20234;-86
2022/03/25 12:03:02;;;;;;;31.75;21.95;;;;;;;;;;5031618;28;20222;-86
2022/03/25 12:05:38;;;;;;;31.02;21.50;;;;;;;;;;5031653;28;20230;-85
2022/03/25 12:08:24;;;;;;;32.22;22.05;;;;;;;;;;5028297;28;20210;-85
2022/03/25 12:10:52;;;;;;;32.13;22.98;;;;;;;;;;5030854;28;20238;-85
2022/03/25 12:13:19;;;;;;;29.88;21.88;;;;;;;;;;5037848;28;20233;-85
2022/03/25 12:15:47;;;;;;;29.65;21.95;;;;;;;;;;5037465;28;20225;-86
2022/03/25 12:18:33;;;;;;;26.50;20.85;;;;;;;;;;5038167;28;20258;-86
2022/03/25 12:21:01;;;;;;;28.42;21.80;;;;;;;;;;5037292;28;20241;-85
2022/03/25 12:23:28;;;;;;;27.85;20.45;;;;;;;;;;5038113;28;20317;-86
2022/03/25 12:25:56;;;;;;;29.00;22.77;;;;;;;;;;5037573;28;21024;-86
2022/03/25 12:28:26;;;;;;;29.30;21.27;;;;;;;;;;5037437;28;20195;-84
2022/03/25 12:30:55;;;;;;;29.88;21.42;;;;;;;;;;5037298;28;20241;-85
2022/03/25 12:33:22;;;;;;;25.88;21.30;;;;;;;;;;5037767;28;20272;-86
2022/03/25 12:35:50;;;;;;;27.38;20.77;;;;;;;;;;5036051;28;20229;-85
2022/03/25 12:38:23;;;;;;;27.50;21.17;;;;;;;;;;5039179;28;20218;-86
2022/03/25 12:40:50;;;;;;;30.73;20.58;;;;;;;;;;5034947;28;20261;-86
2022/03/25 12:43:17;;;;;;;26.65;20.90;;;;;;;;;;5031433;28;20233;-86
2022/03/25 12:45:45;;;;;;;26.42;20.20;;;;;;;;;;5037440;28;20241;-86
2022/03/25 12:48:14;;;;;;;24.88;18.70;;;;;;;;;;5037631;28;20202;-86
2022/03/25 12:50:44;;;;;;;25.48;20.70;;;;;;;;;;5030727;28;20710;-85
2022/03/25 12:53:12;;;;;;;26.38;19.40;;;;;;;;;;5037403;28;20725;-86
2022/03/25 12:55:41;;;;;;;27.02;20.80;;;;;;;;;;5037360;28;20230;-86
2022/03/25 12:58:08;;;;;;;26.38;20.40;;;;;;;;;;5037291;28;20222;-86
2022/03/25 13:00:37;;;;;;;28.02;20.17;;;;;;;;;;5036924;28;20288;-86
2022/03/25 13:03:04;;;;;;;24.27;20.15;;;;;;;;;;5037779;28;20229;-86
2022/03/25 13:05:32;;;;;;;25.73;20.42;;;;;;;;;;5037160;28;20241;-86
2022/03/25 13:07:59;;;;;;;22.25;18.77;;;;;;;;;;5036365;28;20219;-86
2022/03/25 13:10:28;;;;;;;23.48;18.77;;;;;;;;;;5028255;28;20230;-87
2022/03/25 13:12:57;;;;;;;22.63;18.38;;;;;;;;;;5037447;28;20206;-86
2022/03/25 13:15:28;;;;;;;24.83;18.92;;;;;;;;;;5036659;28;20230;-86
2022/03/25 13:17:57;;;;;;;24.27;19.23;;;;;;;;;;5038593;28;20210;-86
2022/03/25 13:20:26;;;;;;;22.75;18.02;;;;;;;;;;5037225;28;20849;-87
2022/03/25 13:22:54;;;;;;;26.35;19.60;;;;;;;;;;5036506;28;20252;-86
2022/03/25 13:25:25;;;;;;;22.52;18.50;;;;;;;;;;5033989;28;20191;-86
2022/03/25 13:27:52;;;;;;;22.15;17.55;;;;;;;;;;5034393;28;20195;-86
2022/03/25 13:30:22;;;;;;;21.35;17.55;;;;;;;;;;5033620;28;20206;-85
2022/03/25 13:32:56;;;;;;;23.25;18.58;;;;;;;;;;5033613;28;20675;-84
2022/03/25 13:35:31;;;;;;;22.45;18.52;;;;;;;;;;5033443;28;20245;-85
2022/03/25 13:38:01;;;;;;;27.45;19.75;;;;;;;;;;5033994;28;20221;-84
2022/03/25 13:40:29;;;;;;;24.20;19.05;;;;;;;;;;5018973;28;20239;-82
2022/03/25 13:42:56;;;;;;;23.60;18.63;;;;;;;;;;5030017;28;20195;-82
2022/03/25 13:45:25;;;;;;;24.65;19.90;;;;;;;;;;5033716;28;20238;-82
2022/03/25 13:47:59;;;;;;;26.25;18.27;;;;;;;;;;5033999;28;20202;-83
2022/03/25 13:50:26;;;;;;;25.23;19.00;;;;;;;;;;5033747;28;20280;-82
2022/03/25 13:52:58;;;;;;;24.98;17.88;;;;;;;;;;5034081;28;20214;-83
2022/03/25 13:55:33;;;;;;;22.00;16.88;;;;;;;;;;5037128;28;20709;-85
2022/03/25 13:58:01;;;;;;;20.30;17.45;;;;;;;;;;5033431;28;20232;-85
2022/03/25 14:00:33;;;;;;;22.02;17.67;;;;;;;;;;5032757;28;20234;-86
2022/03/25 14:03:00;;;;;;;25.83;18.63;;;;;;;;;;5025424;28;20215;-81
2022/03/25 14:05:27;;;;;;;22.15;17.92;;;;;;;;;;5034783;28;20292;-83
2022/03/25 14:07:57;;;;;;;20.60;16.50;;;;;;;;;;5032776;28;20211;-82
2022/03/25 14:10:25;;;;;;;20.80;17.00;;;;;;;;;;5019772;28;20234;-82
2022/03/25 14:13:03;;;;;;;19.88;16.80;;;;;;;;;;5034262;28;20202;-82
2022/03/25 14:15:31;;;;;;;20.67;17.58;;;;;;;;;;5033399;28;20227;-81
2022/03/25 14:17:59;;;;;;;21.52;17.30;;;;;;;;;;5030639;28;20225;-83
2022/03/25 14:20:30;;;;;;;18.33;16.15;;;;;;;;;;5033815;28;20241;-83
2022/03/25 14:22:58;;;;;;;23.67;17.40;;;;;;;;;;5032943;28;20195;-83
2022/03/25 14:25:30;;;;;;;22.27;17.77;;;;;;;;;;5032977;28;20237;-83
2022/03/25 14:27:59;;;;;;;23.15;17.60;;;;;;;;;;5033275;28;20255;-83